Time;durP1;ratioP1;P1;durP2;ratioP2;P2;SDS_P1;SDS_P2;PMS_P1;PMS_P2;Temp;Humidity;BMP_temperature;BMP_pressure;BME280_temperature;BME280_humidity;BME280_pressure;Samples;Min_cycle;Max_cycle;Signal;HPM_P1;HPM_P2
2022/10/30 00:00:27;;;;;;;20.45;14.65;;;14.80;99.90;;;;;;4899131;29;20040;-96
2022/10/30 00:02:53;;;;;;;20.67;14.77;;;14.80;99.90;;;;;;4902716;29;20398;-96
2022/10/30 00:05:19;;;;;;;22.27;14.48;;;14.90;99.90;;;;;;4887018;29;20040;-95
2022/10/30 00:07:46;;;;;;;18.75;13.80;;;14.90;99.90;;;;;;4887275;29;20047;-95
2022/10/30 00:10:12;;;;;;;22.08;14.15;;;14.90;99.90;;;;;;4887735;29;20036;-96
2022/10/30 00:12:37;;;;;;;23.15;14.98;;;14.90;99.90;;;;;;4875412;29;20204;-96
2022/10/30 00:15:03;;;;;;;22.52;14.27;;;14.90;99.90;;;;;;4869330;29;20444;-95
2022/10/30 00:17:29;;;;;;;20.15;14.23;;;15.00;99.90;;;;;;4880461;29;20698;-95
2022/10/30 00:19:55;;;;;;;18.98;13.65;;;14.90;99.90;;;;;;4885996;29;20083;-95
2022/10/30 00:22:21;;;;;;;19.40;13.65;;;14.90;99.90;;;;;;4887095;29;20044;-95
2022/10/30 00:24:47;;;;;;;23.67;14.70;;;14.90;99.90;;;;;;4879136;29;20135;-94
2022/10/30 00:27:12;;;;;;;22.20;14.07;;;14.90;99.90;;;;;;4885536;29;20063;-95
2022/10/30 00:29:38;;;;;;;21.35;14.07;;;14.90;99.90;;;;;;4884870;29;20474;-95
2022/10/30 00:32:04;;;;;;;21.17;15.15;;;14.80;99.90;;;;;;4887957;29;20095;-96
2022/10/30 00:34:29;;;;;;;17.10;13.75;;;14.80;99.90;;;;;;4883644;29;20051;-95
2022/10/30 00:36:55;;;;;;;22.95;14.68;;;14.70;99.90;;;;;;4879790;29;20040;-94
2022/10/30 00:39:20;;;;;;;21.83;15.07;;;14.70;99.90;;;;;;4887259;29;20123;-95
2022/10/30 00:41:46;;;;;;;19.00;14.30;;;14.60;99.90;;;;;;4895760;29;20076;-95
2022/10/30 00:44:34;;;;;;;22.30;14.43;;;14.50;99.90;;;;;;4878665;29;20063;-96
2022/10/30 00:47:04;;;;;;;20.75;14.63;;;14.50;99.90;;;;;;4903577;29;20115;-96
2022/10/30 00:49:37;;;;;;;20.52;14.98;;;14.50;99.90;;;;;;4888959;29;20043;-96
2022/10/30 00:52:07;;;;;;;20.98;14.70;;;14.50;99.90;;;;;;4889920;29;20198;-95
2022/10/30 00:54:34;;;;;;;21.33;13.70;;;14.50;99.90;;;;;;4897524;29;20093;-96
2022/10/30 00:57:02;;;;;;;20.48;14.18;;;14.50;99.90;;;;;;4916448;29;20053;-94
2022/10/30 00:59:31;;;;;;;23.38;14.23;;;14.40;99.90;;;;;;4899761;29;20109;-95
2022/10/30 01:01:57;;;;;;;22.42;15.02;;;14.40;99.90;;;;;;4910897;29;20032;-95
2022/10/30 01:04:23;;;;;;;21.67;14.80;;;14.30;99.90;;;;;;4895572;29;20131;-95
2022/10/30 01:06:51;;;;;;;22.00;14.70;;;14.30;99.90;;;;;;4887894;29;20123;-96
2022/10/30 01:09:18;;;;;;;22.27;14.23;;;14.20;99.90;;;;;;4886859;29;20036;-95
2022/10/30 01:11:44;;;;;;;21.85;14.77;;;14.20;99.90;;;;;;4902218;29;20139;-95
2022/10/30 01:14:13;;;;;;;21.63;14.38;;;14.10;99.90;;;;;;4885246;29;20434;-95
2022/10/30 01:17:05;;;;;;;21.58;14.38;;;14.10;99.90;;;;;;4886711;29;20056;-96
2022/10/30 01:19:49;;;;;;;24.27;14.82;;;14.20;99.90;;;;;;4868745;29;20044;-95
2022/10/30 01:22:36;;;;;;;18.08;13.70;;;14.40;99.90;;;;;;4902383;29;20124;-95
2022/10/30 01:25:20;;;;;;;21.83;14.13;;;14.50;99.90;;;;;;4887370;29;20040;-96
2022/10/30 01:28:36;;;;;;;23.88;14.15;;;14.50;99.90;;;;;;4901698;29;20149;-94
2022/10/30 01:31:08;;;;;;;22.23;13.40;;;14.60;99.90;;;;;;4808766;29;20428;-96
2022/10/30 01:33:45;;;;;;;20.85;13.85;;;14.70;99.90;;;;;;4805010;29;20273;-96
2022/10/30 01:36:48;;;;;;;19.63;13.85;;;14.60;99.90;;;;;;4803991;29;20233;-95
2022/10/30 01:39:46;;;;;;;23.25;14.15;;;14.50;99.90;;;;;;4803515;29;20098;-94
2022/10/30 01:42:48;;;;;;;20.13;14.25;;;14.40;99.90;;;;;;4794929;29;20051;-95
2022/10/30 01:45:35;;;;;;;21.83;13.73;;;14.30;99.90;;;;;;4818184;29;20049;-95
2022/10/30 01:48:09;;;;;;;18.98;13.88;;;14.30;99.90;;;;;;4806953;29;20187;-95
2022/10/30 01:50:59;;;;;;;20.10;14.55;;;14.20;99.90;;;;;;4807275;29;20068;-96
2022/10/30 01:53:51;;;;;;;21.33;14.52;;;14.20;99.90;;;;;;4812464;29;20054;-95
2022/10/30 01:56:17;;;;;;;19.58;13.57;;;14.20;99.90;;;;;;4813766;29;20043;-96
2022/10/30 01:59:00;;;;;;;22.55;14.93;;;14.10;99.90;;;;;;4791377;29;20385;-96
2022/10/30 02:01:30;;;;;;;20.40;13.18;;;14.20;99.90;;;;;;4806645;29;20043;-95
2022/10/30 02:03:56;;;;;;;20.05;14.63;;;14.10;99.90;;;;;;4808953;29;20050;-96
2022/10/30 02:06:21;;;;;;;20.00;14.10;;;14.10;99.90;;;;;;4841610;29;20189;-95
2022/10/30 02:08:47;;;;;;;20.75;14.30;;;14.10;99.90;;;;;;4873360;29;20064;-96
2022/10/30 02:11:14;;;;;;;21.27;14.50;;;14.10;99.90;;;;;;4902711;29;20036;-95
2022/10/30 02:13:40;;;;;;;18.73;13.93;;;14.10;99.90;;;;;;4886488;29;20550;-95
2022/10/30 02:16:07;;;;;;;20.73;13.95;;;14.10;99.90;;;;;;4886538;29;20131;-95
2022/10/30 02:18:33;;;;;;;19.48;13.68;;;14.20;99.90;;;;;;4881246;29;20120;-95
2022/10/30 02:20:58;;;;;;;20.40;14.15;;;14.20;99.90;;;;;;4885584;29;20040;-96
2022/10/30 02:23:24;;;;;;;21.02;14.10;;;14.20;99.90;;;;;;4905296;29;20127;-95
2022/10/30 02:25:50;;;;;;;20.48;13.60;;;14.20;99.90;;;;;;4886466;29;20047;-96
2022/10/30 02:28:15;;;;;;;21.98;14.13;;;14.20;99.90;;;;;;4876960;29;20406;-95
2022/10/30 02:30:42;;;;;;;22.45;12.75;;;14.10;99.90;;;;;;4899981;29;20036;-96
2022/10/30 02:33:09;;;;;;;18.48;14.20;;;14.10;99.90;;;;;;4902362;29;20100;-95
2022/10/30 02:35:35;;;;;;;21.75;14.02;;;14.10;99.90;;;;;;4887528;29;20036;-95
2022/10/30 02:38:01;;;;;;;19.30;14.02;;;14.10;99.90;;;;;;4887509;29;20095;-95
2022/10/30 02:40:27;;;;;;;21.48;13.63;;;14.10;99.90;;;;;;4887352;29;20127;-95
2022/10/30 02:42:54;;;;;;;20.65;14.13;;;14.10;99.90;;;;;;4885718;29;20072;-96
2022/10/30 02:45:20;;;;;;;21.42;14.18;;;14.00;99.90;;;;;;4887761;29;20043;-96
2022/10/30 02:47:46;;;;;;;19.42;14.55;;;13.90;99.90;;;;;;4904637;29;20054;-95
2022/10/30 02:50:12;;;;;;;20.85;13.70;;;13.90;99.90;;;;;;4907146;29;20032;-95
2022/10/30 02:52:37;;;;;;;19.88;14.15;;;13.80;99.90;;;;;;4901043;29;20067;-95
2022/10/30 02:55:03;;;;;;;21.13;14.45;;;13.80;99.90;;;;;;4907557;29;20040;-95
2022/10/30 02:57:29;;;;;;;22.13;14.77;;;13.80;99.90;;;;;;4893945;29;20358;-95
2022/10/30 02:59:55;;;;;;;21.70;14.48;;;13.70;99.90;;;;;;4910501;29;20051;-96
2022/10/30 03:02:21;;;;;;;24.02;15.27;;;13.70;99.90;;;;;;4908589;29;20096;-96
2022/10/30 03:04:46;;;;;;;21.77;13.95;;;13.70;99.90;;;;;;4881626;29;20047;-95
2022/10/30 03:07:12;;;;;;;20.90;14.35;;;13.60;99.90;;;;;;4898091;29;20040;-95
2022/10/30 03:09:37;;;;;;;20.80;14.80;;;13.60;99.90;;;;;;4921263;29;20266;-96
2022/10/30 03:12:03;;;;;;;22.83;14.13;;;13.50;99.90;;;;;;4906174;29;20066;-96
2022/10/30 03:14:29;;;;;;;21.30;14.57;;;13.50;99.90;;;;;;4906664;29;20326;-96
2022/10/30 03:16:55;;;;;;;21.33;14.35;;;13.40;99.90;;;;;;4906899;29;20032;-96
2022/10/30 03:19:21;;;;;;;18.80;14.60;;;13.40;99.90;;;;;;4921844;29;20035;-96
2022/10/30 03:21:47;;;;;;;20.63;14.05;;;13.40;99.90;;;;;;4912457;29;20040;-96
2022/10/30 03:24:13;;;;;;;22.40;14.05;;;13.40;99.90;;;;;;4871582;29;20045;-94
2022/10/30 03:26:39;;;;;;;22.13;14.98;;;13.40;99.90;;;;;;4892404;29;20107;-96
2022/10/30 03:29:05;;;;;;;24.02;14.63;;;13.40;99.90;;;;;;4895761;29;20041;-96
2022/10/30 03:31:31;;;;;;;21.98;14.13;;;13.40;99.90;;;;;;4911365;29;20052;-95
2022/10/30 03:33:57;;;;;;;20.50;13.98;;;13.30;99.90;;;;;;4876716;29;20055;-95
2022/10/30 03:36:25;;;;;;;21.88;14.23;;;13.30;99.90;;;;;;4890313;29;20123;-95
2022/10/30 03:38:50;;;;;;;23.67;14.65;;;13.20;99.90;;;;;;4907853;29;20031;-94
2022/10/30 03:41:16;;;;;;;22.27;14.65;;;13.20;99.90;;;;;;4909786;29;20055;-94
2022/10/30 03:43:42;;;;;;;21.27;15.15;;;13.20;99.90;;;;;;4893543;29;20073;-96
2022/10/30 03:46:09;;;;;;;24.73;15.23;;;13.30;99.90;;;;;;4893931;29;20052;-96
2022/10/30 03:48:34;;;;;;;22.42;14.95;;;13.30;99.90;;;;;;4882406;29;20073;-96
2022/10/30 03:51:00;;;;;;;21.33;14.68;;;13.40;99.90;;;;;;4891015;29;20092;-96
2022/10/30 03:53:27;;;;;;;20.88;15.05;;;13.40;99.90;;;;;;4902312;29;20076;-95
2022/10/30 03:55:59;;;;;;;19.58;14.32;;;13.50;99.90;;;;;;4894646;29;20052;-94
2022/10/30 03:58:26;;;;;;;22.20;15.18;;;13.50;99.90;;;;;;4909236;29;20051;-95
2022/10/30 04:00:52;;;;;;;24.58;14.88;;;13.50;99.90;;;;;;4895501;29;20100;-95
2022/10/30 04:03:18;;;;;;;19.35;14.70;;;13.50;99.90;;;;;;4908711;29;20071;-96
2022/10/30 04:05:43;;;;;;;22.48;15.20;;;13.50;99.90;;;;;;4908131;29;20044;-95
2022/10/30 04:08:13;;;;;;;22.77;15.00;;;13.40;99.90;;;;;;4892500;29;20039;-96
2022/10/30 04:10:43;;;;;;;20.08;15.50;;;13.40;99.90;;;;;;4895233;29;20058;-95
2022/10/30 04:13:10;;;;;;;25.25;15.77;;;13.30;99.90;;;;;;4911873;29;20052;-95
2022/10/30 04:15:36;;;;;;;24.77;15.60;;;13.20;99.90;;;;;;4912321;29;20075;-95
2022/10/30 04:18:02;;;;;;;20.42;15.20;;;13.20;99.90;;;;;;4916608;29;20101;-95
2022/10/30 04:20:29;;;;;;;19.27;15.23;;;13.10;99.90;;;;;;4897756;29;20405;-96
2022/10/30 04:23:00;;;;;;;19.77;14.63;;;13.20;99.90;;;;;;4909570;29;20043;-95
2022/10/30 04:25:26;;;;;;;;;;;13.20;99.90;;;;;;4908712;29;20047;-95
2022/10/30 04:27:52;;;;;;;22.02;15.32;;;13.20;99.90;;;;;;4894468;29;19930;-95
2022/10/30 04:30:22;;;;;;;22.85;14.35;;;13.20;99.90;;;;;;4894191;29;20032;-95
2022/10/30 04:32:52;;;;;;;20.55;15.00;;;13.30;99.90;;;;;;4893709;29;20055;-94
2022/10/30 04:35:20;;;;;;;21.98;15.25;;;13.30;99.90;;;;;;4894323;29;20071;-94
2022/10/30 04:37:57;;;;;;;21.20;14.63;;;13.10;99.90;;;;;;4895870;29;20048;-95
2022/10/30 04:40:24;;;;;;;22.02;15.52;;;13.20;99.90;;;;;;4892113;29;20089;-94
2022/10/30 04:42:51;;;;;;;23.10;15.63;;;13.20;99.90;;;;;;4915154;29;20033;-95
2022/10/30 04:45:17;;;;;;;22.05;14.43;;;13.30;99.90;;;;;;4898797;29;20044;-96
2022/10/30 04:47:42;;;;;;;19.23;14.30;;;13.30;99.90;;;;;;4910421;29;20036;-95
2022/10/30 04:50:09;;;;;;;20.35;14.80;;;13.30;99.90;;;;;;4899670;29;20127;-95
2022/10/30 04:52:35;;;;;;;22.10;16.13;;;13.30;99.90;;;;;;4896412;29;20044;-95
2022/10/30 04:55:00;;;;;;;20.65;14.90;;;13.20;99.90;;;;;;4893807;29;20051;-95
2022/10/30 04:57:26;;;;;;;22.10;15.57;;;13.10;99.90;;;;;;4911471;29;20040;-95
2022/10/30 04:59:52;;;;;;;21.15;14.98;;;13.10;99.90;;;;;;4911136;29;20044;-95
2022/10/30 05:02:20;;;;;;;23.88;16.83;;;13.00;99.90;;;;;;4886528;29;20072;-95
2022/10/30 05:04:46;;;;;;;21.83;15.70;;;13.00;99.90;;;;;;4882226;29;20073;-94
2022/10/30 05:07:12;;;;;;;22.50;15.93;;;13.10;99.90;;;;;;4892199;29;20040;-95
2022/10/30 05:09:38;;;;;;;23.55;16.45;;;13.10;99.90;;;;;;4875722;29;20104;-95
2022/10/30 05:12:04;;;;;;;23.83;16.90;;;13.00;99.90;;;;;;4902434;29;20083;-95
2022/10/30 05:14:31;;;;;;;20.63;15.73;;;13.00;99.90;;;;;;4906993;29;20032;-94
2022/10/30 05:16:57;;;;;;;19.95;15.27;;;13.00;99.90;;;;;;4905339;29;20078;-95
2022/10/30 05:19:23;;;;;;;22.45;16.35;;;12.90;99.90;;;;;;4902352;29;20048;-95
2022/10/30 05:21:49;;;;;;;26.35;17.40;;;12.80;99.90;;;;;;4888099;29;20126;-95
2022/10/30 05:24:14;;;;;;;27.67;17.02;;;12.80;99.90;;;;;;4902577;29;20046;-95
2022/10/30 05:26:40;;;;;;;19.30;15.98;;;12.70;99.90;;;;;;4886956;29;20127;-94
2022/10/30 05:29:06;;;;;;;25.45;16.55;;;12.70;99.90;;;;;;4900789;29;20072;-95
2022/10/30 05:31:32;;;;;;;25.08;16.98;;;12.70;99.90;;;;;;4899754;29;20107;-95
2022/10/30 05:33:57;;;;;;;23.73;16.10;;;12.70;99.90;;;;;;4895331;29;20040;-94
2022/10/30 05:36:23;;;;;;;24.08;16.23;;;12.70;99.90;;;;;;4885816;29;20107;-95
2022/10/30 05:38:49;;;;;;;24.55;17.00;;;12.80;99.90;;;;;;4886636;29;20047;-95
2022/10/30 05:41:15;;;;;;;21.73;15.63;;;12.70;99.90;;;;;;4886435;29;20044;-95
2022/10/30 05:43:41;;;;;;;22.02;15.60;;;12.70;99.90;;;;;;4885644;29;20041;-95
2022/10/30 05:46:06;;;;;;;24.63;16.17;;;12.70;99.90;;;;;;4885161;29;20039;-94
2022/10/30 05:48:32;;;;;;;23.00;16.20;;;12.70;99.90;;;;;;4897874;29;20055;-95
2022/10/30 05:50:57;;;;;;;22.30;16.02;;;12.70;99.90;;;;;;4885628;29;20047;-96
2022/10/30 05:53:23;;;;;;;23.63;16.33;;;12.60;99.90;;;;;;4892662;29;20405;-95
2022/10/30 05:55:49;;;;;;;22.52;16.88;;;12.60;99.90;;;;;;4883742;29;20047;-94
2022/10/30 05:58:15;;;;;;;22.73;16.58;;;12.60;99.90;;;;;;4881409;29;20036;-93
2022/10/30 06:00:43;;;;;;;23.92;16.35;;;12.70;99.90;;;;;;4896813;29;20051;-95
2022/10/30 06:03:12;;;;;;;25.40;18.17;;;12.60;99.90;;;;;;4901859;29;20045;-96
2022/10/30 06:05:39;;;;;;;24.75;16.73;;;12.60;99.90;;;;;;4879420;29;20048;-96
2022/10/30 06:08:06;;;;;;;23.35;16.75;;;12.70;99.90;;;;;;4885764;29;20040;-96
2022/10/30 06:10:36;;;;;;;24.38;16.98;;;12.60;99.90;;;;;;4882749;29;20047;-96
2022/10/30 06:13:04;;;;;;;24.23;17.50;;;12.60;99.90;;;;;;4901326;29;20051;-96
2022/10/30 06:15:32;;;;;;;27.90;17.45;;;12.60;99.90;;;;;;4900748;29;20048;-95
2022/10/30 06:17:58;;;;;;;25.42;17.05;;;12.60;99.90;;;;;;4883857;29;20067;-96
2022/10/30 06:20:27;;;;;;;24.95;17.27;;;12.70;99.90;;;;;;4890966;29;20075;-96
2022/10/30 06:22:56;;;;;;;22.42;16.38;;;12.70;99.90;;;;;;4900491;29;20036;-96
2022/10/30 06:25:23;;;;;;;26.75;17.75;;;12.70;99.90;;;;;;4881411;29;20045;-96
2022/10/30 06:27:49;;;;;;;23.50;17.38;;;12.70;99.90;;;;;;4885821;29;20092;-96
2022/10/30 06:30:14;;;;;;;25.85;17.98;;;12.70;99.90;;;;;;4887575;29;20394;-96
2022/10/30 06:32:40;;;;;;;28.00;18.58;;;12.70;99.90;;;;;;4883846;29;20054;-95
2022/10/30 06:35:07;;;;;;;26.92;17.85;;;12.70;99.90;;;;;;4881722;29;20040;-94
2022/10/30 06:37:33;;;;;;;26.48;17.52;;;12.80;99.90;;;;;;4881844;29;20052;-96
2022/10/30 06:39:59;;;;;;;24.92;17.80;;;12.80;99.90;;;;;;4884911;29;20047;-96
2022/10/30 06:42:27;;;;;;;24.58;17.38;;;12.70;99.90;;;;;;4880671;29;20128;-95
2022/10/30 06:44:53;;;;;;;24.25;17.30;;;12.70;99.90;;;;;;4887544;29;20040;-96
2022/10/30 06:47:19;;;;;;;25.35;18.02;;;12.60;99.90;;;;;;4888357;29;20051;-96
2022/10/30 06:49:45;;;;;;;26.20;18.15;;;12.70;99.90;;;;;;4885377;29;20490;-94
2022/10/30 06:52:10;;;;;;;29.80;17.95;;;12.80;99.90;;;;;;4887741;29;20550;-96
2022/10/30 06:54:36;;;;;;;24.45;16.85;;;12.80;99.90;;;;;;4902237;29;20561;-96
2022/10/30 06:57:02;;;;;;;23.42;16.90;;;12.70;99.90;;;;;;4885156;29;20054;-96
2022/10/30 06:59:27;;;;;;;24.80;17.63;;;12.70;99.90;;;;;;4888875;29;20048;-96
2022/10/30 07:01:53;;;;;;;24.90;17.48;;;12.70;99.90;;;;;;4886855;29;20048;-96
2022/10/30 07:04:19;;;;;;;25.13;18.27;;;12.70;99.90;;;;;;4883122;29;20043;-91
2022/10/30 07:06:44;;;;;;;23.63;17.23;;;12.60;99.90;;;;;;4892158;29;20048;-89
2022/10/30 07:09:10;;;;;;;25.00;17.63;;;12.60;99.90;;;;;;4895026;29;20052;-89
2022/10/30 07:11:36;;;;;;;25.00;18.23;;;12.50;99.90;;;;;;4897898;29;20158;-88
2022/10/30 07:14:01;;;;;;;25.48;18.20;;;12.50;99.90;;;;;;4916471;29;20056;-89
2022/10/30 07:16:27;;;;;;;21.67;17.45;;;12.60;99.90;;;;;;4897143;29;20063;-90
2022/10/30 07:18:55;;;;;;;24.08;18.65;;;12.60;99.90;;;;;;4898965;29;20071;-88
2022/10/30 07:21:20;;;;;;;22.70;17.10;;;12.50;99.90;;;;;;4895790;29;20094;-89
2022/10/30 07:23:46;;;;;;;23.17;18.35;;;12.60;99.90;;;;;;4914684;29;20080;-90
2022/10/30 07:26:11;;;;;;;21.92;17.58;;;12.60;99.90;;;;;;4880522;29;20044;-89
2022/10/30 07:28:37;;;;;;;24.88;19.05;;;12.60;99.90;;;;;;4916696;29;20040;-90
2022/10/30 07:31:03;;;;;;;26.65;19.63;;;12.60;99.90;;;;;;4916720;29;20516;-89
2022/10/30 07:33:28;;;;;;;24.30;18.52;;;12.70;99.90;;;;;;4893119;29;20111;-87
2022/10/30 07:35:54;;;;;;;23.83;18.60;;;12.70;99.90;;;;;;4889006;29;20455;-88
2022/10/30 07:38:19;;;;;;;24.33;18.20;;;12.80;99.90;;;;;;4903900;29;20032;-88
2022/10/30 07:40:52;;;;;;;24.33;18.33;;;12.80;99.90;;;;;;4919607;29;20095;-88
2022/10/30 07:43:17;;;;;;;24.67;18.73;;;12.80;99.90;;;;;;4901179;29;20044;-88
2022/10/30 07:45:44;;;;;;;24.92;18.65;;;12.90;99.90;;;;;;4906100;29;20066;-89
2022/10/30 07:48:10;;;;;;;25.83;19.08;;;12.80;99.90;;;;;;4902302;29;20079;-88
2022/10/30 07:50:35;;;;;;;26.10;19.38;;;12.90;99.90;;;;;;4907067;29;20036;-90
2022/10/30 07:53:01;;;;;;;24.17;19.15;;;12.90;99.90;;;;;;4930866;29;20036;-91
2022/10/30 07:55:27;;;;;;;25.67;18.38;;;12.90;99.90;;;;;;4906576;29;20139;-89
2022/10/30 07:57:53;;;;;;;24.13;18.80;;;13.00;99.90;;;;;;4907829;29;20040;-88
2022/10/30 08:00:18;;;;;;;26.30;19.60;;;13.00;99.90;;;;;;4892359;29;20047;-87
2022/10/30 08:02:48;;;;;;;27.25;19.88;;;13.00;99.90;;;;;;4919261;29;20076;-87
2022/10/30 08:05:14;;;;;;;25.80;18.30;;;13.10;99.90;;;;;;4914874;29;20046;-88
2022/10/30 08:07:39;;;;;;;28.08;19.63;;;13.20;99.90;;;;;;4918004;29;20494;-89
2022/10/30 08:10:07;;;;;;;28.10;20.50;;;13.30;99.90;;;;;;4898175;29;20135;-89
2022/10/30 08:12:33;;;;;;;22.70;18.77;;;13.40;99.90;;;;;;4896213;29;20068;-89
2022/10/30 08:14:59;;;;;;;22.88;18.50;;;13.60;99.90;;;;;;4884459;29;20036;-89
2022/10/30 08:17:25;;;;;;;25.20;19.10;;;13.50;99.90;;;;;;4895349;29;20160;-90
2022/10/30 08:19:51;;;;;;;25.02;19.90;;;13.60;99.90;;;;;;4897458;29;20126;-89
2022/10/30 08:22:17;;;;;;;24.58;19.23;;;13.60;99.90;;;;;;4897215;29;20040;-90
2022/10/30 08:24:43;;;;;;;28.05;20.25;;;13.70;99.90;;;;;;4911650;29;20390;-88
2022/10/30 08:27:09;;;;;;;26.38;19.25;;;13.70;99.90;;;;;;4913005;29;20119;-91
2022/10/30 08:29:34;;;;;;;27.88;20.65;;;13.80;99.90;;;;;;4881474;29;20123;-92
2022/10/30 08:32:00;;;;;;;26.83;19.02;;;13.80;99.90;;;;;;4881227;29;20068;-92
2022/10/30 08:34:26;;;;;;;24.00;19.13;;;13.90;99.90;;;;;;4893644;29;20043;-90
2022/10/30 08:36:53;;;;;;;28.73;19.90;;;13.90;99.90;;;;;;4894956;29;20494;-89
2022/10/30 08:39:19;;;;;;;29.08;20.02;;;13.80;99.90;;;;;;4882107;29;20040;-89
2022/10/30 08:41:45;;;;;;;22.65;19.00;;;14.00;99.90;;;;;;4899255;29;20044;-90
2022/10/30 08:44:11;;;;;;;26.85;20.25;;;14.00;99.90;;;;;;4900186;29;20054;-90
2022/10/30 08:46:36;;;;;;;24.23;19.08;;;14.10;99.90;;;;;;4912961;29;20421;-90
2022/10/30 08:49:02;;;;;;;24.77;20.48;;;14.20;99.90;;;;;;4896628;29;20044;-89
2022/10/30 08:51:31;;;;;;;28.08;19.77;;;14.20;99.90;;;;;;4898232;29;20040;-89
2022/10/30 08:53:57;;;;;;;28.52;20.38;;;14.30;99.90;;;;;;4896883;29;20305;-92
2022/10/30 08:56:22;;;;;;;25.83;20.48;;;14.30;99.90;;;;;;4880998;29;20055;-93
2022/10/30 08:58:50;;;;;;;24.30;19.27;;;14.40;99.90;;;;;;4881713;29;20040;-89
2022/10/30 09:01:15;;;;;;;25.73;20.52;;;14.40;99.90;;;;;;4897720;29;20076;-90
2022/10/30 09:03:43;;;;;;;27.58;21.05;;;14.40;99.90;;;;;;4898018;29;20048;-89
2022/10/30 09:06:09;;;;;;;25.85;20.80;;;14.50;99.90;;;;;;4886383;29;20044;-88
2022/10/30 09:08:35;;;;;;;26.77;20.45;;;14.50;99.90;;;;;;4917173;29;20028;-89
2022/10/30 09:11:01;;;;;;;25.65;20.00;;;14.60;99.90;;;;;;4895672;29;20043;-90
2022/10/30 09:13:28;;;;;;;27.92;20.83;;;14.60;99.90;;;;;;4891078;29;20063;-89
2022/10/30 09:15:58;;;;;;;28.00;19.83;;;14.70;99.90;;;;;;4896204;29;20044;-91
2022/10/30 09:18:23;;;;;;;27.55;20.88;;;14.70;99.90;;;;;;4897330;29;21220;-91
2022/10/30 09:20:49;;;;;;;27.08;22.08;;;14.80;99.90;;;;;;4896965;29;20040;-92
2022/10/30 09:23:14;;;;;;;26.73;20.00;;;14.90;99.90;;;;;;4879853;29;20112;-91
2022/10/30 09:25:40;;;;;;;26.75;19.73;;;15.00;99.90;;;;;;4880867;29;20406;-90
2022/10/30 09:28:06;;;;;;;24.95;20.02;;;15.00;99.90;;;;;;4894587;29;20055;-90
2022/10/30 09:30:31;;;;;;;24.52;19.92;;;15.10;99.90;;;;;;4879290;29;20108;-90
2022/10/30 09:33:00;;;;;;;24.00;19.08;;;15.10;99.90;;;;;;4891572;29;20044;-90
2022/10/30 09:35:26;;;;;;;24.98;19.08;;;15.20;99.90;;;;;;4889966;29;20132;-88
2022/10/30 09:37:52;;;;;;;25.33;19.33;;;15.20;99.90;;;;;;4892127;29;20504;-89
2022/10/30 09:40:47;;;;;;;25.90;19.70;;;15.20;99.90;;;;;;4912047;29;20501;-92
2022/10/30 09:43:32;;;;;;;26.15;19.27;;;15.30;99.90;;;;;;4892872;29;20080;-89
2022/10/30 09:46:16;;;;;;;27.13;20.17;;;15.40;99.90;;;;;;4881067;29;20635;-92
2022/10/30 09:49:07;;;;;;;24.70;19.20;;;15.50;99.90;;;;;;4899522;29;20055;-92
2022/10/30 09:51:56;;;;;;;26.65;20.27;;;15.60;99.90;;;;;;4903786;29;20122;-92
2022/10/30 09:54:39;;;;;;;26.17;19.20;;;15.70;99.90;;;;;;4913204;29;20565;-92
2022/10/30 09:57:20;;;;;;;24.35;19.25;;;15.80;99.90;;;;;;4881979;29;20073;-93
2022/10/30 10:00:06;;;;;;;23.02;18.52;;;15.80;99.90;;;;;;4897055;29;20044;-92
2022/10/30 10:02:36;;;;;;;28.58;20.20;;;15.90;99.90;;;;;;4897115;29;20048;-92
2022/10/30 10:05:28;;;;;;;23.42;19.40;;;15.90;99.90;;;;;;4908189;29;20028;-92
2022/10/30 10:08:06;;;;;;;28.25;19.88;;;16.10;99.90;;;;;;4899121;29;20052;-92
2022/10/30 10:10:36;;;;;;;26.42;19.50;;;16.20;99.90;;;;;;4896479;29;20079;-92
2022/10/30 10:13:03;;;;;;;26.67;19.30;;;16.20;99.90;;;;;;4911631;29;20560;-92
2022/10/30 10:15:41;;;;;;;25.30;19.42;;;16.30;99.90;;;;;;4879580;29;20049;-93
2022/10/30 10:18:21;;;;;;;24.58;19.63;;;16.40;99.90;;;;;;4896075;29;20044;-93
2022/10/30 10:20:50;;;;;;;24.67;18.15;;;16.40;99.90;;;;;;4877406;29;20043;-93
2022/10/30 10:23:37;;;;;;;25.20;19.17;;;16.50;99.90;;;;;;4879856;29;20103;-92
2022/10/30 10:26:19;;;;;;;27.95;18.67;;;16.50;99.90;;;;;;4880803;29;20590;-94
2022/10/30 10:28:54;;;;;;;27.35;19.17;;;16.60;99.90;;;;;;4910333;29;20440;-92
2022/10/30 10:31:27;;;;;;;23.60;18.45;;;16.60;99.90;;;;;;4880602;29;20044;-92
2022/10/30 10:34:01;;;;;;;28.27;18.90;;;16.70;99.90;;;;;;4895987;29;20040;-92
2022/10/30 10:36:55;;;;;;;26.73;18.73;;;16.70;99.90;;;;;;4894648;29;20105;-93
2022/10/30 10:39:51;;;;;;;24.23;16.92;;;16.80;99.90;;;;;;4896075;29;20401;-93
2022/10/30 10:42:31;;;;;;;25.05;17.35;;;16.90;99.90;;;;;;4912233;29;20044;-92
2022/10/30 10:45:27;;;;;;;21.73;16.63;;;17.00;99.90;;;;;;4895518;29;20467;-93
2022/10/30 10:48:15;;;;;;;23.33;17.27;;;17.00;99.90;;;;;;4880489;29;20094;-93
2022/10/30 10:50:57;;;;;;;26.50;17.35;;;17.10;99.90;;;;;;4896309;29;20070;-92
2022/10/30 10:53:43;;;;;;;23.80;16.52;;;17.10;99.90;;;;;;4892634;29;20408;-93
2022/10/30 10:56:09;;;;;;;22.77;17.45;;;17.20;99.90;;;;;;4880310;29;20424;-93
2022/10/30 10:58:42;;;;;;;25.05;17.27;;;17.30;99.90;;;;;;4880008;29;20048;-92
2022/10/30 11:01:16;;;;;;;22.83;17.15;;;17.30;99.90;;;;;;4895306;29;20096;-93
2022/10/30 11:03:56;;;;;;;22.92;18.10;;;17.40;99.90;;;;;;4896364;29;20052;-93
2022/10/30 11:06:30;;;;;;;23.30;17.67;;;17.40;99.90;;;;;;4893758;29;20100;-94
2022/10/30 11:09:20;;;;;;;21.75;16.92;;;17.50;99.90;;;;;;4892163;29;20194;-93
2022/10/30 11:11:48;;;;;;;25.23;16.77;;;17.50;99.90;;;;;;4903583;29;20064;-95
2022/10/30 11:14:14;;;;;;;22.23;15.43;;;17.70;99.90;;;;;;4872357;29;20043;-90
2022/10/30 11:17:11;;;;;;;21.30;16.13;;;17.70;99.90;;;;;;4875236;29;20048;-90
2022/10/30 11:19:36;;;;;;;22.35;15.52;;;17.70;99.90;;;;;;4888788;29;20044;-89
2022/10/30 11:22:08;;;;;;;21.95;15.73;;;17.80;99.90;;;;;;4891332;29;20040;-88
2022/10/30 11:24:35;;;;;;;22.75;15.05;;;17.70;99.90;;;;;;4869568;29;20064;-92
2022/10/30 11:27:22;;;;;;;22.10;15.95;;;17.80;99.90;;;;;;4870830;29;20390;-91
2022/10/30 11:29:52;;;;;;;23.80;15.70;;;17.80;99.90;;;;;;4889168;29;20079;-90
2022/10/30 11:32:21;;;;;;;24.60;14.73;;;17.90;99.90;;;;;;4888137;29;20123;-90
2022/10/30 11:35:00;;;;;;;20.92;14.75;;;17.90;99.90;;;;;;4872993;29;20056;-91
2022/10/30 11:37:31;;;;;;;23.05;12.98;;;17.90;99.90;;;;;;4872606;29;20093;-92
2022/10/30 11:40:03;;;;;;;;;;;17.90;99.90;;;;;;4860026;29;20517;-92
2022/10/30 11:42:28;;;;;;;20.27;13.40;;;18.00;99.90;;;;;;4892625;29;19950;-92
2022/10/30 11:44:54;;;;;;;22.30;14.02;;;18.00;99.90;;;;;;4860169;29;20552;-91
2022/10/30 11:47:29;;;;;;;20.55;13.07;;;18.10;99.90;;;;;;4859856;29;20040;-92
2022/10/30 11:50:00;;;;;;;20.33;12.75;;;18.20;99.90;;;;;;4876169;29;20080;-90
2022/10/30 11:52:26;;;;;;;16.38;11.35;;;18.30;99.90;;;;;;4857598;29;20040;-88
2022/10/30 11:55:01;;;;;;;19.25;11.90;;;18.50;99.90;;;;;;4879858;29;20570;-96
2022/10/30 11:57:35;;;;;;;20.30;11.05;;;18.60;99.90;;;;;;4863648;29;20041;-94
2022/10/30 12:00:07;;;;;;;17.13;11.48;;;18.60;99.90;;;;;;4866545;29;20044;-93
2022/10/30 12:02:43;;;;;;;19.58;12.52;;;18.70;99.90;;;;;;4879521;29;20048;-94
2022/10/30 12:05:35;;;;;;;18.85;11.85;;;18.70;99.90;;;;;;4881778;29;20064;-93
2022/10/30 12:08:07;;;;;;;21.80;11.88;;;18.70;99.90;;;;;;4880270;29;20100;-93
2022/10/30 12:10:40;;;;;;;18.63;12.15;;;18.70;99.90;;;;;;4867892;29;20041;-95
2022/10/30 12:13:12;;;;;;;22.20;13.38;;;18.80;99.90;;;;;;4874805;29;20096;-93
2022/10/30 12:15:38;;;;;;;21.63;12.95;;;18.80;99.90;;;;;;4873503;29;20080;-94
2022/10/30 12:18:14;;;;;;;21.60;12.77;;;18.80;99.90;;;;;;4875646;29;20151;-93
2022/10/30 12:20:45;;;;;;;19.30;12.63;;;18.90;99.90;;;;;;4876941;29;20045;-93
2022/10/30 12:23:19;;;;;;;;;;;18.90;99.90;;;;;;4894338;29;20043;-94
2022/10/30 12:25:50;;;;;;;18.98;12.27;;;19.00;99.90;;;;;;4912401;29;19927;-93
2022/10/30 12:28:19;;;;;;;19.35;12.02;;;19.20;99.90;;;;;;4915239;29;20092;-94
2022/10/30 12:30:53;;;;;;;18.08;11.43;;;19.20;99.90;;;;;;4891842;29;20036;-94
2022/10/30 12:33:24;;;;;;;22.95;12.57;;;19.30;99.90;;;;;;4902556;29;20040;-93
2022/10/30 12:35:59;;;;;;;17.05;11.95;;;19.20;99.90;;;;;;4886509;29;20045;-94
2022/10/30 12:38:48;;;;;;;18.45;11.70;;;19.20;99.90;;;;;;4886516;29;20081;-94
2022/10/30 12:41:16;;;;;;;16.60;10.70;;;19.20;99.90;;;;;;4912210;29;20055;-93